createdAt,value
2022-08-17T00:02:26.793Z,99174.97
2022-08-17T00:05:31.557Z,99174.22
2022-08-17T00:08:43.986Z,99169.41
2022-08-17T00:12:35.510Z,99161.56
2022-08-17T00:15:15.163Z,99173.53
2022-08-17T00:19:06.994Z,99176.16
2022-08-17T00:22:29.462Z,99176.63
2022-08-17T00:25:15.005Z,99179.56
2022-08-17T00:28:18.174Z,99178.94
2022-08-17T00:31:24.792Z,99177.09
2022-08-17T00:34:28.847Z,99182.31
2022-08-17T00:37:35.174Z,99172.38
2022-08-17T00:40:45.517Z,99181.72
2022-08-17T00:43:52.108Z,99185.09
2022-08-17T00:46:56.260Z,99181.41
2022-08-17T00:49:59.286Z,99187.41
2022-08-17T00:53:04.690Z,99184.19
2022-08-17T00:56:12.959Z,99195.69
2022-08-17T00:59:19.287Z,99195.22
2022-08-17T01:02:24.101Z,99192.31
2022-08-17T01:05:31.643Z,99199.84
2022-08-17T01:08:36.472Z,99202.16
2022-08-17T01:11:40.787Z,99200.91
2022-08-17T01:14:44.130Z,99197.12
2022-08-17T01:17:48.154Z,99199.69
2022-08-17T01:20:53.989Z,99201.69
2022-08-17T01:23:57.233Z,99204.00
2022-08-17T01:27:00.612Z,99205.53
2022-08-17T01:30:57.329Z,99194.78
2022-08-17T01:33:31.015Z,99195.25
2022-08-17T01:36:33.783Z,99187.91
2022-08-17T01:39:42.235Z,99195.41
2022-08-17T01:42:50.644Z,99188.81
2022-08-17T01:46:02.507Z,99198.63
2022-08-17T01:49:08.766Z,99196.62
2022-08-17T01:52:12.550Z,99190.19
2022-08-17T01:55:18.075Z,99189.44
2022-08-17T01:58:21.505Z,99178.25
2022-08-17T02:01:30.840Z,99184.38
2022-08-17T02:04:35.089Z,99193.25
2022-08-17T02:07:59.442Z,99193.41
2022-08-17T02:11:12.172Z,99184.69
2022-08-17T02:14:15.202Z,99191.69
2022-08-17T02:17:18.250Z,99195.34
2022-08-17T02:20:41.764Z,99197.66
2022-08-17T02:23:47.566Z,99191.50
2022-08-17T02:26:50.513Z,99195.66
2022-08-17T02:29:53.731Z,99189.38
2022-08-17T02:32:56.524Z,99185.84
2022-08-17T02:35:59.910Z,99187.97
2022-08-17T02:39:07.077Z,99189.50
2022-08-17T02:42:10.211Z,99187.03
2022-08-17T02:45:19.360Z,99187.94
2022-08-17T02:48:30.423Z,99192.03
2022-08-17T02:51:35.392Z,99196.00
2022-08-17T02:54:42.291Z,99203.50
2022-08-17T02:57:45.595Z,99191.84
2022-08-17T03:00:49.066Z,99191.22
2022-08-17T03:03:51.847Z,99195.19
2022-08-17T03:06:54.904Z,99199.44
2022-08-17T03:09:57.691Z,99197.75
2022-08-17T03:13:01.410Z,99201.75
2022-08-17T03:16:04.330Z,99211.22
2022-08-17T03:19:07.506Z,99217.81
2022-08-17T03:22:36.518Z,99208.94
2022-08-17T03:25:46.090Z,99205.88
2022-08-17T03:28:49.059Z,99200.03
2022-08-17T03:31:52.506Z,99199.84
2022-08-17T03:34:59.831Z,99203.97
2022-08-17T03:38:04.631Z,99202.75
2022-08-17T03:41:09.037Z,99199.56
2022-08-17T03:44:12.102Z,99193.13
2022-08-17T03:47:33.853Z,99196.34
2022-08-17T03:50:55.849Z,99205.06
2022-08-17T03:54:18.908Z,99209.81
2022-08-17T03:57:22.569Z,99210.56
2022-08-17T04:00:25.393Z,99221.00
2022-08-17T04:03:28.868Z,99213.63
2022-08-17T04:06:31.590Z,99216.25
2022-08-17T04:09:36.665Z,99220.09
2022-08-17T04:12:43.375Z,99232.50
2022-08-17T04:15:49.324Z,99238.66
2022-08-17T04:18:52.649Z,99240.75
2022-08-17T04:21:58.037Z,99247.63
2022-08-17T04:25:18.117Z,99251.34
2022-08-17T04:28:21.189Z,99251.78
2022-08-17T04:31:24.089Z,99252.84
2022-08-17T04:34:29.142Z,99260.50
2022-08-17T04:37:31.922Z,99255.28
2022-08-17T04:40:53.331Z,99254.84
2022-08-17T04:43:58.565Z,99260.97
2022-08-17T04:47:01.727Z,99255.22
2022-08-17T04:50:04.958Z,99263.00
2022-08-17T04:53:08.012Z,99264.75
2022-08-17T04:56:16.603Z,99269.78
2022-08-17T04:59:21.698Z,99278.19
2022-08-17T05:02:24.523Z,99269.22
2022-08-17T05:05:34.070Z,99276.16
2022-08-17T05:08:40.015Z,99275.75
2022-08-17T05:11:44.954Z,99282.63
2022-08-17T05:14:48.012Z,99284.50
2022-08-17T05:17:51.167Z,99295.22
2022-08-17T05:20:54.706Z,99280.44
2022-08-17T05:23:58.770Z,99278.47
2022-08-17T05:27:06.702Z,99277.41
2022-08-17T05:30:10.242Z,99282.78
2022-08-17T05:33:26.469Z,99291.25
2022-08-17T05:36:43.660Z,99281.28
2022-08-17T05:39:47.335Z,99283.87
2022-08-17T05:42:50.896Z,99289.00
2022-08-17T05:46:02.100Z,99290.69
2022-08-17T05:49:12.039Z,99282.88
2022-08-17T05:52:48.545Z,99290.50
2022-08-17T05:56:29.722Z,99285.34
2022-08-17T05:59:33.047Z,99286.59
2022-08-17T06:02:48.533Z,99282.38
2022-08-17T06:06:04.188Z,99288.03
2022-08-17T06:09:33.662Z,99296.38
2022-08-17T06:13:19.766Z,99296.78
2022-08-17T06:16:34.167Z,99299.19
2022-08-17T06:19:50.020Z,99306.41
2022-08-17T06:22:56.669Z,99304.84
2022-08-17T06:26:03.955Z,99299.97
2022-08-17T06:29:18.894Z,99298.06
2022-08-17T06:32:23.065Z,99307.69
2022-08-17T06:35:34.078Z,99298.00
2022-08-17T06:39:17.247Z,99299.91
2022-08-17T06:42:55.078Z,99305.22
2022-08-17T06:46:20.018Z,99308.53
2022-08-17T06:49:27.111Z,99307.06
2022-08-17T06:52:45.268Z,99311.53
2022-08-17T06:56:07.622Z,99310.56
2022-08-17T06:59:17.669Z,99313.72
2022-08-17T07:02:29.327Z,99314.19
2022-08-17T07:05:58.463Z,99314.66
2022-08-17T07:09:07.268Z,99310.56
2022-08-17T07:12:22.230Z,99310.62
2022-08-17T07:15:34.190Z,99315.84
2022-08-17T07:18:37.531Z,99313.50
2022-08-17T07:22:00.193Z,99304.53
2022-08-17T07:25:08.150Z,99311.97
2022-08-17T07:28:12.132Z,99312.69
2022-08-17T07:31:17.718Z,99309.63
2022-08-17T07:34:20.731Z,99314.97
2022-08-17T07:37:23.818Z,99306.38
2022-08-17T07:40:33.768Z,99312.91
2022-08-17T07:43:39.983Z,99312.53
2022-08-17T07:47:10.535Z,99307.91
2022-08-17T07:50:40.180Z,99305.53
2022-08-17T07:53:43.004Z,99310.62
2022-08-17T07:57:01.613Z,99308.31
2022-08-17T08:00:17.002Z,99316.59
2022-08-17T08:03:32.056Z,99322.44
2022-08-17T08:06:47.652Z,99314.84
2022-08-17T08:10:28.496Z,99319.75
2022-08-17T08:13:32.502Z,99312.94
2022-08-17T08:16:36.891Z,99308.88
2022-08-17T08:19:40.171Z,99315.78
2022-08-17T08:22:49.336Z,99316.09
2022-08-17T08:26:18.884Z,99312.88
2022-08-17T08:29:34.003Z,99306.06
2022-08-17T08:32:39.741Z,99312.47
2022-08-17T08:35:55.327Z,99313.66
2022-08-17T08:39:04.596Z,99312.34
2022-08-17T08:42:10.597Z,99310.94
2022-08-17T08:45:42.845Z,99319.06
2022-08-17T08:48:58.135Z,99317.81
2022-08-17T08:52:04.152Z,99316.59
2022-08-17T08:55:07.902Z,99312.78
2022-08-17T08:58:41.790Z,99311.53
2022-08-17T09:01:48.306Z,99306.69
2022-08-17T09:05:15.987Z,99303.38
2022-08-17T09:08:47.359Z,99314.28
2022-08-17T09:12:04.052Z,99302.78
2022-08-17T09:15:21.628Z,99310.59
2022-08-17T09:19:00.954Z,99307.00
2022-08-17T09:21:56.062Z,99309.81
2022-08-17T09:25:21.884Z,99312.25
2022-08-17T09:28:34.809Z,99320.03
2022-08-17T09:31:49.395Z,99307.84
2022-08-17T09:34:56.788Z,99305.34
2022-08-17T09:38:03.854Z,99308.94
2022-08-17T09:41:22.684Z,99302.06
2022-08-17T09:44:38.677Z,99306.81
2022-08-17T09:47:48.642Z,99294.72
2022-08-17T09:51:19.491Z,99294.84
2022-08-17T09:54:42.775Z,99288.50
2022-08-17T09:58:09.430Z,99288.03
2022-08-17T10:01:34.987Z,99284.66
2022-08-17T10:04:54.203Z,99296.81
2022-08-17T10:08:24.489Z,99298.16
2022-08-17T10:12:02.757Z,99294.56
2022-08-17T10:15:24.533Z,99299.97
2022-08-17T10:27:23.061Z,99289.69
2022-08-17T10:51:09.120Z,99288.09
2022-08-17T11:23:40.219Z,99274.12
2022-08-17T11:43:27.493Z,99249.03
2022-08-17T13:09:07.502Z,99211.06
2022-08-17T14:06:52.979Z,99178.09
2022-08-17T14:10:20.663Z,99166.06
2022-08-17T14:55:42.625Z,99159.56
2022-08-17T14:59:22.675Z,99164.69
2022-08-17T15:02:32.484Z,99162.09
2022-08-17T15:05:57.425Z,99161.19
2022-08-17T15:37:01.137Z,99164.81
2022-08-17T15:51:38.539Z,99164.16
2022-08-17T16:03:45.011Z,99164.31
2022-08-17T16:07:26.706Z,99172.41
2022-08-17T16:15:09.548Z,99165.84
2022-08-17T16:26:37.023Z,99156.09
2022-08-17T22:26:05.424Z,99262.37
2022-08-17T22:29:44.598Z,99266.19
2022-08-17T22:32:48.563Z,99263.34
2022-08-17T22:36:22.027Z,99265.59
2022-08-17T22:39:26.303Z,99272.78
2022-08-17T22:42:29.418Z,99270.63
2022-08-17T22:45:33.663Z,99274.22
2022-08-17T22:48:37.206Z,99279.63
2022-08-17T22:51:40.351Z,99277.69
2022-08-17T22:55:12.830Z,99279.28
2022-08-17T22:58:38.100Z,99291.87
2022-08-17T23:01:42.993Z,99283.75
2022-08-17T23:05:16.906Z,99283.03
2022-08-17T23:08:21.484Z,99302.34
2022-08-17T23:11:36.821Z,99297.66
2022-08-17T23:14:51.528Z,99300.75
2022-08-17T23:17:54.602Z,99300.66
2022-08-17T23:20:57.770Z,99300.16
2022-08-17T23:24:01.561Z,99299.09
2022-08-17T23:27:07.696Z,99304.84
2022-08-17T23:30:12.142Z,99300.13
2022-08-17T23:33:30.050Z,99297.06
2022-08-17T23:36:33.592Z,99297.03
2022-08-17T23:39:37.622Z,99295.81
2022-08-17T23:42:46.247Z,99295.22
2022-08-17T23:45:50.422Z,99293.91
2022-08-17T23:48:54.231Z,99290.66
2022-08-17T23:52:00.446Z,99294.88
2022-08-17T23:55:04.277Z,99292.25
2022-08-17T23:58:07.760Z,99296.62
